Time;durP1;ratioP1;P1;durP2;ratioP2;P2;SDS_P1;SDS_P2;PMS_P1;PMS_P2;Temp;Humidity;BMP_temperature;BMP_pressure;BME280_temperature;BME280_humidity;BME280_pressure;Samples;Min_cycle;Max_cycle;Signal;HPM_P1;HPM_P2
2021/09/22 00:00:39;;;;;;;25.60;16.30;;;;;;;9.61;86.66;99057.15;114114;1198;22432;-84
2021/09/22 00:03:06;;;;;;;25.50;18.20;;;;;;;9.60;86.75;99055.64;114343;1198;22446;-84
2021/09/22 00:05:32;;;;;;;25.20;17.00;;;;;;;9.60;86.73;99055.91;114238;1177;22487;-84
2021/09/22 00:07:59;;;;;;;23.90;15.70;;;;;;;9.60;87.05;99052.60;114180;1198;22467;-84
2021/09/22 00:10:26;;;;;;;24.00;16.40;;;;;;;9.61;86.73;99048.48;114276;1198;25226;-84
2021/09/22 00:12:55;;;;;;;24.30;16.30;;;;;;;9.60;86.87;99043.68;114012;1198;22468;-83
2021/09/22 00:15:23;;;;;;;25.70;17.60;;;;;;;9.61;86.89;99040.58;114260;1198;24188;-84
2021/09/22 00:17:50;;;;;;;22.90;15.80;;;;;;;9.60;86.82;99037.55;114372;1198;22442;-84
2021/09/22 00:20:32;;;;;;;23.80;16.70;;;;;;;9.57;86.83;99043.85;114314;1198;24143;-85
2021/09/22 00:22:58;;;;;;;27.40;16.20;;;;;;;9.55;86.91;99041.15;114423;1198;22492;-84
2021/09/22 00:25:29;;;;;;;25.10;15.60;;;;;;;9.56;86.92;99036.41;114346;1198;22416;-84
2021/09/22 00:28:10;;;;;;;28.80;18.10;;;;;;;9.56;86.94;99038.80;114271;1198;22496;-84
2021/09/22 00:30:37;;;;;;;24.70;17.00;;;;;;;9.56;87.18;99033.23;114006;1198;24171;-84
2021/09/22 00:33:06;;;;;;;25.30;17.50;;;;;;;9.60;87.31;99031.22;113853;1198;25042;-84
2021/09/22 00:35:33;;;;;;;27.50;17.30;;;;;;;9.63;87.41;99030.30;114081;1198;24851;-83
2021/09/22 00:38:00;;;;;;;23.80;17.00;;;;;;;9.65;86.92;99028.62;113894;1198;24062;-83
2021/09/22 00:40:26;;;;;;;26.70;17.90;;;;;;;9.65;87.09;99026.61;113908;1198;24152;-84
2021/09/22 00:42:53;;;;;;;29.80;18.30;;;;;;;9.62;86.92;99021.79;113978;1198;24296;-83
2021/09/22 00:45:19;;;;;;;25.40;17.90;;;;;;;9.60;86.92;99018.84;113852;1198;23753;-83
2021/09/22 00:47:45;;;;;;;23.00;16.80;;;;;;;9.58;86.86;99015.39;114087;1198;22446;-84
2021/09/22 00:50:25;;;;;;;28.80;17.50;;;;;;;9.57;87.05;99012.17;114005;1198;24234;-84
2021/09/22 00:52:53;;;;;;;24.60;16.80;;;;;;;9.58;87.34;99014.31;114015;1198;25142;-83
2021/09/22 00:55:20;;;;;;;24.00;17.70;;;;;;;9.56;87.18;99005.63;114190;1198;22444;-85
2021/09/22 00:57:50;;;;;;;28.50;18.30;;;;;;;9.54;87.17;98999.50;113984;1198;22429;-85
2021/09/22 01:00:19;;;;;;;25.40;18.50;;;;;;;9.51;87.10;98999.90;113874;1198;25237;-85
2021/09/22 01:02:48;;;;;;;25.80;18.70;;;;;;;9.47;87.32;98993.20;113867;1198;22450;-84
2021/09/22 01:05:20;;;;;;;27.00;18.50;;;;;;;9.46;87.38;98996.48;113992;1198;25016;-84
2021/09/22 01:07:47;;;;;;;28.90;18.30;;;;;;;9.41;87.29;98992.38;114044;1198;22462;-84
2021/09/22 01:10:15;;;;;;;27.80;17.20;;;;;;;9.36;87.54;98990.21;113769;1198;22447;-84
2021/09/22 01:12:45;;;;;;;24.30;17.30;;;;;;;9.34;87.44;98992.59;114042;1198;22456;-84
2021/09/22 01:15:24;;;;;;;27.20;17.40;;;;;;;9.32;87.63;98983.98;114008;1199;25037;-85
2021/09/22 01:17:51;;;;;;;27.30;18.70;;;;;;;9.32;87.84;98984.48;114044;1198;24983;-85
2021/09/22 01:20:18;;;;;;;26.60;17.30;;;;;;;9.32;88.00;98982.30;114152;1198;22578;-85
2021/09/22 01:22:46;;;;;;;25.40;16.70;;;;;;;9.34;88.10;98980.71;114280;1198;22438;-85
2021/09/22 01:25:13;;;;;;;23.80;15.90;;;;;;;9.33;87.92;98982.52;113658;1198;24174;-84
2021/09/22 01:27:49;;;;;;;26.30;17.00;;;;;;;9.33;88.00;98978.25;113853;1180;22693;-84
2021/09/22 01:30:16;;;;;;;25.10;16.20;;;;;;;9.33;87.98;98976.11;113938;1198;22440;-84
2021/09/22 01:33:01;;;;;;;24.80;15.60;;;;;;;9.32;87.94;98979.98;113714;1198;22442;-83
2021/09/22 01:35:43;;;;;;;24.80;15.90;;;;;;;9.30;87.79;98978.65;114037;1198;22430;-83
2021/09/22 01:38:21;;;;;;;25.70;16.50;;;;;;;9.27;87.78;98972.32;114028;1198;22791;-84
2021/09/22 01:41:00;;;;;;;26.40;15.90;;;;;;;9.27;87.96;98969.43;113970;1198;24059;-83
2021/09/22 01:43:28;;;;;;;24.30;15.50;;;;;;;9.25;87.88;98968.11;113689;1198;24027;-83
2021/09/22 01:45:56;;;;;;;23.30;15.30;;;;;;;9.21;87.81;98967.27;114044;1198;22559;-83
2021/09/22 01:48:22;;;;;;;24.60;14.30;;;;;;;9.19;88.16;98968.59;113866;1198;24133;-83
2021/09/22 01:50:55;;;;;;;19.00;13.20;;;;;;;9.18;88.01;98964.52;114049;1198;22868;-84
2021/09/22 01:53:22;;;;;;;20.60;12.80;;;;;;;9.16;88.16;98965.36;113852;1183;22510;-83
2021/09/22 01:55:52;;;;;;;20.00;13.90;;;;;;;9.12;88.05;98960.60;114014;1198;22435;-84
2021/09/22 01:58:19;;;;;;;18.10;12.20;;;;;;;9.09;88.43;98956.05;113865;1198;22437;-84
2021/09/22 02:01:12;;;;;;;10.90;8.70;;;;;;;9.04;88.24;98949.50;113884;1198;24133;-83
2021/09/22 02:04:10;;;;;;;12.50;8.60;;;;;;;8.93;88.14;98948.09;113836;1198;24975;-83
2021/09/22 02:06:44;;;;;;;10.60;7.20;;;;;;;8.85;88.25;98945.45;113974;1198;23982;-83
2021/09/22 02:09:13;;;;;;;11.10;8.10;;;;;;;8.77;88.31;98939.91;113862;1198;23204;-84
2021/09/22 02:11:40;;;;;;;10.50;7.00;;;;;;;8.72;88.35;98939.50;114153;1198;25097;-84
2021/09/22 02:14:09;;;;;;;8.00;5.50;;;;;;;8.68;88.51;98940.28;113969;1198;22443;-82
2021/09/22 02:16:43;;;;;;;6.30;4.40;;;;;;;8.63;88.17;98937.65;113795;1198;22444;-83
2021/09/22 02:19:32;;;;;;;4.30;2.80;;;;;;;8.56;88.01;98933.19;114011;1198;22439;-83
2021/09/22 02:22:17;;;;;;;3.70;3.10;;;;;;;8.48;87.77;98932.86;114001;1198;22443;-83
2021/09/22 02:25:00;;;;;;;3.50;2.60;;;;;;;8.41;87.77;98928.84;113815;1198;22416;-82
2021/09/22 02:27:28;;;;;;;3.10;2.30;;;;;;;8.36;88.01;98925.33;113849;1193;24042;-82
2021/09/22 02:29:54;;;;;;;2.40;2.20;;;;;;;8.32;87.87;98921.50;113894;1198;22473;-83
2021/09/22 02:32:21;;;;;;;4.90;2.60;;;;;;;8.30;88.10;98924.09;113859;1198;24088;-84
2021/09/22 02:34:47;;;;;;;4.60;2.50;;;;;;;8.26;88.05;98922.87;113789;1198;22500;-84
2021/09/22 02:37:13;;;;;;;3.60;2.70;;;;;;;8.23;88.27;98925.95;113820;1198;24138;-85
2021/09/22 02:39:55;;;;;;;3.30;2.80;;;;;;;8.18;88.48;98922.38;113626;1198;23951;-84
2021/09/22 02:42:23;;;;;;;3.00;2.70;;;;;;;8.18;88.70;98915.25;113730;1198;22418;-85
2021/09/22 02:44:49;;;;;;;4.10;2.90;;;;;;;8.23;89.12;98912.27;114231;1198;25157;-85
2021/09/22 02:47:16;;;;;;;4.60;3.40;;;;;;;8.30;89.04;98911.13;113829;1198;23804;-86
2021/09/22 02:49:43;;;;;;;7.40;4.30;;;;;;;8.36;88.62;98907.08;114164;1183;24132;-85
2021/09/22 02:52:10;;;;;;;5.70;3.90;;;;;;;8.38;88.28;98908.77;113843;1198;23804;-85
2021/09/22 02:54:36;;;;;;;4.90;2.90;;;;;;;8.40;88.25;98900.95;113561;1200;22452;-84
2021/09/22 02:57:15;;;;;;;4.00;2.80;;;;;;;8.41;88.21;98903.45;113690;1199;22566;-84
2021/09/22 02:59:41;;;;;;;4.90;3.10;;;;;;;8.41;87.91;98901.99;113788;1198;22458;-84
2021/09/22 03:02:08;;;;;;;4.30;3.20;;;;;;;8.39;87.96;98899.95;113721;1194;24031;-84
2021/09/22 03:04:34;;;;;;;4.00;3.20;;;;;;;8.39;87.94;98900.06;113879;1198;23435;-85
2021/09/22 03:07:01;;;;;;;4.00;2.50;;;;;;;8.41;87.95;98904.45;113762;1198;22425;-85
2021/09/22 03:09:27;;;;;;;5.10;3.40;;;;;;;8.43;87.99;98904.34;113969;1198;23768;-85
2021/09/22 03:11:53;;;;;;;5.70;3.40;;;;;;;8.44;87.96;98904.62;113973;1198;22452;-84
2021/09/22 03:14:21;;;;;;;3.90;3.50;;;;;;;8.44;87.98;98900.37;113998;1198;23190;-85
2021/09/22 03:16:50;;;;;;;5.10;3.20;;;;;;;8.43;87.84;98896.61;114299;1198;22578;-85
2021/09/22 03:19:17;;;;;;;4.60;3.10;;;;;;;8.44;87.84;98898.20;114092;1198;22428;-85
2021/09/22 03:21:43;;;;;;;6.10;3.80;;;;;;;8.45;88.05;98894.17;114326;1198;22744;-85
2021/09/22 03:24:09;;;;;;;4.40;3.20;;;;;;;8.47;88.36;98892.16;114039;1198;23789;-84
2021/09/22 03:26:35;;;;;;;4.60;3.80;;;;;;;8.51;88.58;98896.39;114361;1198;22424;-85
2021/09/22 03:29:02;;;;;;;5.30;4.00;;;;;;;8.57;88.53;98894.62;114222;1198;22422;-85
2021/09/22 03:31:29;;;;;;;6.30;3.40;;;;;;;8.63;88.40;98883.64;114235;1198;24061;-85
2021/09/22 03:33:55;;;;;;;8.70;4.00;;;;;;;8.68;88.29;98881.52;113863;1198;22392;-84
2021/09/22 03:36:22;;;;;;;5.70;3.90;;;;;;;8.71;88.22;98885.99;114129;1198;24156;-85
2021/09/22 03:38:48;;;;;;;5.30;4.00;;;;;;;8.72;88.12;98883.06;113902;1198;23185;-85
2021/09/22 03:41:15;;;;;;;5.40;3.60;;;;;;;8.75;88.24;98885.20;114010;1198;22466;-85
2021/09/22 03:43:42;;;;;;;6.50;4.00;;;;;;;8.78;88.09;98885.73;113964;1198;23799;-85
2021/09/22 03:46:09;;;;;;;5.10;4.00;;;;;;;8.81;88.17;98886.58;114236;1198;24050;-85
2021/09/22 03:48:36;;;;;;;8.40;4.80;;;;;;;8.82;87.98;98886.86;114284;1198;22915;-85
2021/09/22 03:51:02;;;;;;;7.60;5.60;;;;;;;8.80;87.74;98882.32;114210;1198;22474;-86
2021/09/22 03:53:36;;;;;;;7.20;4.70;;;;;;;8.78;87.74;98876.06;114293;1198;23485;-86
2021/09/22 03:56:03;;;;;;;7.70;4.60;;;;;;;8.78;87.89;98877.11;114264;1198;23074;-85
2021/09/22 03:58:29;;;;;;;5.50;3.90;;;;;;;8.80;88.01;98873.67;114163;1198;22485;-86
2021/09/22 04:00:56;;;;;;;5.00;4.00;;;;;;;8.82;87.95;98874.78;114479;1198;22435;-86
2021/09/22 04:03:22;;;;;;;7.00;4.50;;;;;;;8.83;87.97;98875.90;114300;1198;22441;-85
2021/09/22 04:05:49;;;;;;;5.80;4.20;;;;;;;8.85;87.86;98876.56;113890;1198;22467;-86
2021/09/22 04:08:15;;;;;;;4.60;4.00;;;;;;;8.85;87.53;98875.97;114169;1198;22439;-85
2021/09/22 04:10:43;;;;;;;4.50;3.40;;;;;;;8.80;87.33;98876.89;114143;1198;22489;-86
2021/09/22 04:13:10;;;;;;;8.20;3.80;;;;;;;8.75;87.44;98879.56;114094;1193;23173;-86
2021/09/22 04:15:42;;;;;;;5.80;3.40;;;;;;;8.67;87.50;98879.81;114294;1193;23747;-86
2021/09/22 04:18:09;;;;;;;4.90;3.30;;;;;;;8.62;87.59;98876.42;114294;1198;22437;-86
2021/09/22 04:20:35;;;;;;;4.20;2.50;;;;;;;8.58;87.62;98877.38;113964;1198;24018;-86
2021/09/22 04:23:02;;;;;;;4.30;2.90;;;;;;;8.55;87.58;98880.86;114169;1198;23147;-86
2021/09/22 04:25:29;;;;;;;3.40;2.90;;;;;;;8.50;87.65;98882.36;114232;1198;22419;-85
2021/09/22 04:28:00;;;;;;;3.00;2.60;;;;;;;8.44;87.77;98886.38;114364;1198;22443;-86
2021/09/22 04:30:46;;;;;;;4.40;3.80;;;;;;;8.39;87.91;98886.67;114253;1198;22478;-86
2021/09/22 04:33:46;;;;;;;3.80;3.00;;;;;;;8.38;88.06;98890.86;114079;1199;23806;-86
2021/09/22 04:36:31;;;;;;;3.50;2.60;;;;;;;8.35;88.08;98890.12;114046;1198;23085;-86
2021/09/22 04:39:16;;;;;;;5.30;3.40;;;;;;;8.33;88.24;98890.86;113950;1199;22492;-86
2021/09/22 04:42:02;;;;;;;4.20;3.00;;;;;;;8.31;88.41;98891.29;113944;1198;26269;-85
2021/09/22 04:44:47;;;;;;;4.80;3.20;;;;;;;8.29;88.53;98891.72;114003;1198;22486;-85
2021/09/22 04:47:33;;;;;;;3.50;2.70;;;;;;;8.29;88.41;98892.73;114154;1198;24141;-85
2021/09/22 04:50:19;;;;;;;5.30;2.90;;;;;;;8.28;88.27;98891.40;114103;1198;26347;-85
2021/09/22 04:53:04;;;;;;;3.20;2.70;;;;;;;8.26;88.21;98891.83;114370;1198;22545;-85
2021/09/22 04:55:50;;;;;;;4.80;3.20;;;;;;;8.25;88.12;98891.13;114312;1198;22495;-85
2021/09/22 04:58:35;;;;;;;8.10;2.90;;;;;;;8.20;87.99;98891.61;114257;1192;23262;-86
2021/09/22 05:01:20;;;;;;;5.40;3.60;;;;;;;8.14;88.28;98897.41;114080;1194;22440;-86
2021/09/22 05:04:07;;;;;;;4.20;2.50;;;;;;;8.12;88.68;98906.15;114176;1198;24976;-86
2021/09/22 05:06:52;;;;;;;4.00;2.90;;;;;;;8.11;88.87;98906.48;114138;1193;24041;-85
2021/09/22 05:09:37;;;;;;;4.80;3.50;;;;;;;8.10;88.72;98905.61;114292;1198;22410;-86
2021/09/22 05:12:22;;;;;;;4.40;3.20;;;;;;;8.11;88.90;98912.23;114379;1183;24143;-85
2021/09/22 05:15:22;;;;;;;4.90;3.80;;;;;;;8.13;88.77;98915.54;114225;1192;25418;-85
2021/09/22 05:18:07;;;;;;;4.40;3.70;;;;;;;8.13;88.85;98917.66;114009;1198;22859;-84
2021/09/22 05:20:52;;;;;;;4.80;3.30;;;;;;;8.14;89.07;98915.40;114173;1177;24158;-85
2021/09/22 05:23:37;;;;;;;5.20;3.30;;;;;;;8.20;89.29;98918.11;114420;1198;22459;-85
2021/09/22 05:26:23;;;;;;;6.80;4.70;;;;;;;8.25;89.45;98923.14;114133;1198;22447;-84
2021/09/22 05:29:07;;;;;;;6.50;4.60;;;;;;;8.32;89.28;98921.92;114232;1198;22458;-84
2021/09/22 05:31:52;;;;;;;8.30;5.70;;;;;;;8.41;89.13;98921.05;114081;1198;25131;-84
2021/09/22 05:34:38;;;;;;;6.30;4.20;;;;;;;8.50;89.16;98923.51;114523;1197;22430;-84
2021/09/22 05:37:23;;;;;;;7.90;5.20;;;;;;;8.57;88.75;98921.10;114357;1198;24107;-84
2021/09/22 05:40:09;;;;;;;7.80;5.50;;;;;;;8.60;88.78;98922.50;114186;1198;24104;-84
2021/09/22 05:42:54;;;;;;;7.80;5.70;;;;;;;8.67;88.79;98925.13;114443;1198;25230;-84
2021/09/22 05:45:39;;;;;;;6.70;5.50;;;;;;;8.71;88.73;98923.59;114103;1192;22421;-84
2021/09/22 05:48:24;;;;;;;8.10;5.10;;;;;;;8.79;88.87;98923.69;114293;1198;22465;-84
2021/09/22 05:51:10;;;;;;;8.90;5.80;;;;;;;8.85;88.31;98926.27;114297;1190;25013;-84
2021/09/22 05:53:55;;;;;;;7.40;5.40;;;;;;;8.88;88.20;98931.05;114002;1198;22441;-84
2021/09/22 05:56:42;;;;;;;6.20;4.40;;;;;;;8.85;87.71;98928.33;114117;1198;22456;-85
2021/09/22 05:59:27;;;;;;;6.90;4.40;;;;;;;8.78;87.51;98931.58;114231;1191;22844;-85
2021/09/22 06:02:12;;;;;;;6.20;4.40;;;;;;;8.74;87.13;98930.04;114234;1177;22509;-84
2021/09/22 06:04:57;;;;;;;6.60;4.60;;;;;;;8.67;87.67;98930.47;114054;1193;24042;-84
2021/09/22 06:07:42;;;;;;;7.90;5.60;;;;;;;8.66;87.92;98931.69;114303;1192;22506;-85
2021/09/22 06:10:38;;;;;;;5.60;4.50;;;;;;;8.68;88.12;98931.89;114088;1198;22440;-84
2021/09/22 06:13:23;;;;;;;6.00;4.70;;;;;;;8.70;88.01;98932.66;114207;1198;22453;-83
2021/09/22 06:15:52;;;;;;;6.30;4.80;;;;;;;8.73;88.18;98935.34;114200;1198;24126;-84
2021/09/22 06:18:18;;;;;;;7.50;5.60;;;;;;;8.72;88.19;98933.39;114108;1198;25082;-83
2021/09/22 06:20:45;;;;;;;9.10;5.20;;;;;;;8.71;88.37;98932.70;114285;1198;22471;-84
2021/09/22 06:23:26;;;;;;;8.90;5.10;;;;;;;8.71;88.00;98929.92;114325;1198;22448;-84
2021/09/22 06:25:52;;;;;;;5.50;4.80;;;;;;;8.71;87.94;98930.80;114328;1198;24046;-84
2021/09/22 06:28:19;;;;;;;7.70;5.70;;;;;;;8.72;87.93;98933.40;114180;1198;23747;-83
2021/09/22 06:31:01;;;;;;;5.90;4.20;;;;;;;8.76;88.25;98937.42;114060;1198;22456;-83
2021/09/22 06:33:27;;;;;;;5.90;4.50;;;;;;;8.74;87.94;98935.96;114339;1198;22933;-83
2021/09/22 06:35:59;;;;;;;9.20;5.60;;;;;;;8.73;87.85;98937.14;114213;1198;24175;-83
2021/09/22 06:38:27;;;;;;;7.50;5.20;;;;;;;8.78;88.13;98942.20;114191;1198;23182;-84
2021/09/22 06:41:11;;;;;;;7.90;5.00;;;;;;;8.84;88.34;98946.00;113862;1198;22533;-83
2021/09/22 06:43:38;;;;;;;9.90;5.80;;;;;;;8.87;88.29;98946.10;113973;1199;22543;-83
2021/09/22 06:46:05;;;;;;;8.70;5.60;;;;;;;8.88;88.35;98945.48;113903;1185;22427;-84
2021/09/22 06:48:31;;;;;;;10.00;6.30;;;;;;;8.91;88.32;98946.99;114085;1198;22452;-83
2021/09/22 06:50:57;;;;;;;7.90;6.00;;;;;;;8.96;88.17;98947.52;114261;1198;22460;-83
2021/09/22 06:53:23;;;;;;;7.10;5.50;;;;;;;8.98;88.17;98949.30;114300;1198;23618;-83
2021/09/22 06:55:50;;;;;;;9.40;6.00;;;;;;;8.99;88.00;98949.91;114448;1198;22478;-84
2021/09/22 06:58:16;;;;;;;7.40;5.20;;;;;;;9.01;87.91;98950.45;114195;1198;22434;-83
2021/09/22 07:00:42;;;;;;;7.60;4.70;;;;;;;9.02;87.75;98948.43;114406;1198;24991;-83
2021/09/22 07:03:12;;;;;;;8.00;5.50;;;;;;;9.01;87.74;98951.71;114138;1198;24043;-83
2021/09/22 07:05:43;;;;;;;9.00;5.80;;;;;;;9.00;87.74;98953.80;113860;1198;22428;-84
2021/09/22 07:08:10;;;;;;;8.60;5.10;;;;;;;9.00;87.45;98954.89;114057;1194;22440;-83
2021/09/22 07:10:51;;;;;;;9.70;5.40;;;;;;;8.99;87.48;98960.61;114116;1198;22460;-83
2021/09/22 07:13:20;;;;;;;7.90;5.60;;;;;;;8.98;87.38;98960.46;114257;1198;22903;-83
2021/09/22 07:15:47;;;;;;;7.90;6.10;;;;;;;8.98;87.49;98962.46;114383;1198;23252;-83
2021/09/22 07:18:28;;;;;;;7.50;5.70;;;;;;;8.97;87.53;98970.42;114600;1198;25216;-83
2021/09/22 07:20:54;;;;;;;9.10;6.40;;;;;;;8.94;87.61;98967.43;115188;1198;24066;-84
2021/09/22 07:23:21;;;;;;;8.50;6.50;;;;;;;8.87;87.88;98966.73;114323;1193;22638;-84
2021/09/22 07:25:48;;;;;;;7.40;5.40;;;;;;;8.83;88.48;98973.12;114269;1198;25414;-83
2021/09/22 07:28:14;;;;;;;9.10;6.30;;;;;;;8.80;88.85;98969.77;114263;1197;23329;-83
2021/09/22 07:30:42;;;;;;;8.30;5.50;;;;;;;8.79;89.06;98977.21;114438;1193;22476;-82
2021/09/22 07:33:08;;;;;;;6.70;6.00;;;;;;;8.73;89.08;98983.23;114351;1198;24062;-82
2021/09/22 07:35:34;;;;;;;8.50;6.30;;;;;;;8.70;89.44;98990.02;114431;1198;22824;-82
2021/09/22 07:38:01;;;;;;;4.40;3.00;;;;;;;8.71;89.36;98999.40;114575;1198;22505;-82
2021/09/22 07:40:29;;;;;;;4.00;3.10;;;;;;;8.69;88.07;99001.13;114153;1198;25173;-82
2021/09/22 07:42:57;;;;;;;5.60;3.70;;;;;;;8.70;88.28;99005.72;114199;1198;22477;-82
2021/09/22 07:45:25;;;;;;;7.20;4.00;;;;;;;8.77;88.75;99007.52;113960;1192;23011;-82
2021/09/22 07:47:51;;;;;;;6.00;3.60;;;;;;;8.82;88.22;99005.67;114257;1198;22448;-81
2021/09/22 07:50:18;;;;;;;5.70;3.70;;;;;;;8.87;88.01;99008.61;113832;1198;24863;-82
2021/09/22 07:52:45;;;;;;;6.00;4.20;;;;;;;8.90;87.48;99005.08;114401;1198;22669;-82
2021/09/22 07:55:12;;;;;;;7.50;3.70;;;;;;;8.93;86.98;99005.52;114225;1198;26322;-82
2021/09/22 07:57:38;;;;;;;6.70;4.90;;;;;;;8.93;86.46;99006.11;114053;1188;22422;-82
2021/09/22 08:00:06;;;;;;;4.80;3.30;;;;;;;8.95;86.92;99010.39;113615;1198;22964;-85
2021/09/22 08:02:38;;;;;;;6.60;4.10;;;;;;;8.98;86.96;99016.81;113815;1198;22428;-83
2021/09/22 08:05:05;;;;;;;7.60;4.30;;;;;;;9.04;87.01;99020.55;113871;1198;22440;-83
2021/09/22 08:07:32;;;;;;;7.20;3.80;;;;;;;9.10;86.90;99018.25;114046;1198;25089;-83
2021/09/22 08:09:58;;;;;;;7.50;3.90;;;;;;;9.22;86.90;99015.44;113905;1198;22439;-83
2021/09/22 08:12:24;;;;;;;6.30;4.20;;;;;;;9.32;86.36;99018.14;114003;1198;22710;-83
2021/09/22 08:14:51;;;;;;;4.60;3.60;;;;;;;9.39;86.28;99024.48;114065;1198;25199;-83
2021/09/22 08:17:18;;;;;;;4.80;4.00;;;;;;;9.45;85.93;99029.95;114085;1198;23136;-83
2021/09/22 08:19:45;;;;;;;6.40;4.20;;;;;;;9.52;85.71;99030.13;114016;1198;23220;-83
2021/09/22 08:22:11;;;;;;;5.30;4.50;;;;;;;9.62;85.10;99032.75;114244;1198;22793;-83
2021/09/22 08:24:38;;;;;;;5.50;4.10;;;;;;;9.67;84.24;99035.59;114013;1198;25049;-83
2021/09/22 08:27:05;;;;;;;6.70;4.20;;;;;;;9.67;84.33;99034.96;114052;1198;22534;-83
2021/09/22 08:29:34;;;;;;;7.30;4.70;;;;;;;9.74;85.18;99035.17;114097;1192;22443;-83
2021/09/22 08:32:00;;;;;;;10.70;4.20;;;;;;;9.81;84.95;99033.19;114015;1198;22425;-83
2021/09/22 08:34:27;;;;;;;7.00;4.10;;;;;;;9.86;84.57;99029.86;113926;1198;25208;-83
2021/09/22 08:36:53;;;;;;;7.20;4.40;;;;;;;9.89;83.75;99029.66;114479;1198;25009;-83
2021/09/22 08:39:20;;;;;;;5.50;3.90;;;;;;;9.93;83.65;99026.44;113952;1198;22499;-83
2021/09/22 08:41:48;;;;;;;7.70;4.20;;;;;;;9.99;83.64;99023.14;113955;1198;22441;-83
2021/09/22 08:44:17;;;;;;;5.70;4.20;;;;;;;10.07;83.58;99018.86;114204;1198;25086;-84
2021/09/22 08:46:45;;;;;;;5.20;3.90;;;;;;;10.05;82.56;99019.20;113963;1198;22483;-83
2021/09/22 08:49:12;;;;;;;5.10;4.10;;;;;;;10.05;82.68;99021.81;114057;1198;23084;-83
2021/09/22 08:51:39;;;;;;;6.40;4.20;;;;;;;10.04;82.34;99016.84;114262;1198;22880;-83
2021/09/22 08:54:05;;;;;;;6.40;4.40;;;;;;;10.03;83.12;99017.96;113896;1198;22471;-83
2021/09/22 08:56:35;;;;;;;5.60;4.30;;;;;;;10.00;81.68;99021.75;113912;1198;22426;-82
2021/09/22 08:59:02;;;;;;;7.20;4.10;;;;;;;9.94;82.44;99017.89;114154;1198;22468;-82
2021/09/22 09:01:28;;;;;;;5.60;4.00;;;;;;;9.97;82.94;99024.13;114205;1197;26245;-82
2021/09/22 09:03:55;;;;;;;4.70;4.00;;;;;;;10.03;82.72;99019.20;114094;1198;23202;-82
2021/09/22 09:06:37;;;;;;;9.50;4.90;;;;;;;10.09;83.05;99025.58;114025;1198;22457;-82
2021/09/22 09:09:05;;;;;;;8.10;4.10;;;;;;;10.21;82.81;99020.41;113986;1197;25123;-82
2021/09/22 09:11:37;;;;;;;6.30;3.70;;;;;;;10.28;82.10;99024.30;114144;1198;23538;-82
2021/09/22 09:14:06;;;;;;;9.60;4.50;;;;;;;10.32;81.79;99028.20;114061;1198;22428;-82
2021/09/22 09:16:38;;;;;;;;;;;;;;;10.36;81.81;99030.02;113947;1198;25187;-83
2021/09/22 09:19:19;;;;;;;6.10;4.40;;;;;;;10.36;81.03;99028.71;113953;1198;22493;-82
2021/09/22 09:22:05;;;;;;;7.20;4.60;;;;;;;10.37;80.12;99028.23;113914;1192;22587;-82
2021/09/22 09:24:47;;;;;;;6.20;4.70;;;;;;;10.37;80.03;99026.55;113922;1197;22488;-82
2021/09/22 09:27:19;;;;;;;6.80;4.10;;;;;;;10.44;81.12;99025.83;113720;1198;24039;-82
2021/09/22 09:29:51;;;;;;;9.20;4.40;;;;;;;10.55;81.28;99025.36;114034;1198;22461;-82
2021/09/22 09:32:21;;;;;;;8.00;4.40;;;;;;;10.65;80.19;99021.32;114182;1198;22405;-83
2021/09/22 09:35:16;;;;;;;7.40;4.90;;;;;;;10.66;79.35;99024.73;113946;1198;23800;-82
2021/09/22 09:37:57;;;;;;;8.20;4.70;;;;;;;10.61;79.16;99018.27;113671;1198;24080;-82
2021/09/22 09:40:35;;;;;;;9.50;5.40;;;;;;;10.59;79.50;99018.82;114033;1198;22799;-82
2021/09/22 09:43:07;;;;;;;6.90;4.50;;;;;;;10.59;79.85;99023.16;113681;1198;24044;-82
2021/09/22 09:45:38;;;;;;;8.30;4.20;;;;;;;10.56;79.70;99022.66;114040;1198;24174;-82
2021/09/22 09:48:09;;;;;;;7.20;4.40;;;;;;;10.57;79.57;99021.30;114314;1198;24153;-82
2021/09/22 09:51:02;;;;;;;6.50;4.80;;;;;;;10.53;78.78;99019.48;114065;1198;23196;-82
2021/09/22 09:53:43;;;;;;;5.70;4.00;;;;;;;10.47;79.02;99017.89;114017;1198;22494;-82
2021/09/22 09:56:18;;;;;;;8.40;4.50;;;;;;;10.42;79.64;99019.96;114132;1198;24161;-82
2021/09/22 09:58:49;;;;;;;11.90;5.10;;;;;;;10.41;79.62;99025.92;114008;1198;22706;-82
2021/09/22 10:01:18;;;;;;;11.20;5.40;;;;;;;10.43;80.30;99029.55;114068;1198;24163;-82
2021/09/22 10:03:46;;;;;;;6.30;3.90;;;;;;;10.47;80.39;99027.69;114018;1198;24135;-82
2021/09/22 10:06:14;;;;;;;7.30;4.50;;;;;;;10.45;78.88;99031.85;113996;1197;24999;-81
2021/09/22 10:08:40;;;;;;;8.70;5.20;;;;;;;10.43;79.34;99034.23;113927;1198;22428;-82
2021/09/22 10:11:07;;;;;;;10.60;5.50;;;;;;;10.46;79.86;99032.02;113902;1198;26383;-82
2021/09/22 10:13:33;;;;;;;7.90;4.40;;;;;;;10.48;79.95;99033.92;114270;1198;22474;-81
2021/09/22 10:16:01;;;;;;;8.70;5.10;;;;;;;10.52;80.62;99029.09;113944;1198;25008;-82
2021/09/22 10:18:28;;;;;;;7.00;4.00;;;;;;;10.61;78.92;99032.10;113738;1198;22474;-82
2021/09/22 10:20:55;;;;;;;8.30;4.40;;;;;;;10.55;77.74;99031.67;113911;1198;25117;-83
2021/09/22 10:23:24;;;;;;;8.90;4.70;;;;;;;10.48;78.44;99029.89;113783;1183;22496;-82
2021/09/22 10:25:51;;;;;;;9.00;4.70;;;;;;;10.46;79.23;99026.36;113960;1198;24079;-82
2021/09/22 10:28:42;;;;;;;4.80;3.90;;;;;;;10.48;79.15;99027.83;113993;1198;22460;-82
2021/09/22 10:31:28;;;;;;;7.10;4.80;;;;;;;10.50;79.10;99027.81;114176;1197;23114;-82
2021/09/22 10:33:57;;;;;;;5.90;4.10;;;;;;;10.53;79.66;99026.90;114028;1198;22446;-82
2021/09/22 10:36:43;;;;;;;8.40;5.10;;;;;;;10.57;79.20;99025.29;113798;1198;25032;-82
2021/09/22 10:39:23;;;;;;;7.20;4.10;;;;;;;10.61;78.63;99025.48;114308;1198;22461;-82
2021/09/22 10:41:49;;;;;;;8.00;4.90;;;;;;;10.64;77.89;99026.86;113717;1192;25134;-82
2021/09/22 10:44:35;;;;;;;10.80;4.50;;;;;;;10.69;77.81;99023.72;113916;1198;22474;-83
2021/09/22 10:47:30;;;;;;;9.60;4.60;;;;;;;10.72;77.45;99028.21;113960;1182;24075;-83
2021/09/22 10:50:42;;;;;;;6.20;4.60;;;;;;;10.72;76.61;99031.78;113983;1198;24138;-83
2021/09/22 10:53:33;;;;;;;9.10;4.60;;;;;;;10.72;77.36;99031.37;114057;1176;22428;-82
2021/09/22 10:56:00;;;;;;;6.50;3.30;;;;;;;10.74;76.65;99034.14;114208;1198;22486;-82
2021/09/22 10:58:48;;;;;;;10.90;4.20;;;;;;;10.74;76.17;99032.55;115041;1198;22462;-82
2021/09/22 11:01:32;;;;;;;6.30;4.50;;;;;;;10.71;76.91;99034.36;114668;1198;23195;-82
2021/09/22 11:04:13;;;;;;;6.60;3.70;;;;;;;10.72;77.61;99033.11;114693;1197;25127;-82
2021/09/22 11:06:43;;;;;;;8.90;4.00;;;;;;;10.73;77.09;99033.65;114734;1197;23115;-82
2021/09/22 11:09:19;;;;;;;7.10;3.80;;;;;;;10.75;77.13;99028.94;114371;1198;25174;-83
2021/09/22 11:14:37;;;;;;;6.00;4.10;;;;;;;10.76;76.02;99024.23;114680;1197;25258;-82
2021/09/22 11:17:15;;;;;;;9.60;4.80;;;;;;;10.78;76.43;99026.08;114642;1198;22947;-82
2021/09/22 11:19:44;;;;;;;8.90;5.10;;;;;;;10.85;76.44;99028.37;114583;1198;22503;-81
2021/09/22 11:22:14;;;;;;;5.40;3.80;;;;;;;10.88;75.97;99026.94;114716;1191;26238;-81
2021/09/22 11:24:42;;;;;;;;;;;;;;;10.95;76.04;99022.55;114399;1198;25027;-81
2021/09/22 11:27:14;;;;;;;;;;;;;;;11.04;75.65;99027.95;114993;1198;23727;-82
2021/09/22 11:29:46;;;;;;;9.10;4.20;;;;;;;11.11;76.19;99027.92;114597;1192;25208;-81
2021/09/22 11:32:31;;;;;;;8.20;3.80;;;;;;;11.19;75.49;99027.27;113874;1198;23566;-82
2021/09/22 11:35:01;;;;;;;6.50;3.50;;;;;;;11.20;74.29;99025.95;114048;1198;25124;-82
2021/09/22 11:37:42;;;;;;;7.20;3.60;;;;;;;11.21;74.37;99026.95;115243;1197;22270;-81
2021/09/22 11:40:30;;;;;;;4.70;3.30;;;;;;;11.22;73.51;99029.91;114289;1198;25274;-81
2021/09/22 11:43:18;;;;;;;4.60;4.00;;;;;;;11.20;74.03;99028.00;114467;1198;22433;-82
2021/09/22 11:45:51;;;;;;;6.90;4.10;;;;;;;11.25;75.08;99026.77;114308;1197;22443;-81
2021/09/22 11:48:35;;;;;;;3.70;3.00;;;;;;;11.31;74.55;99029.46;114284;1198;25400;-81
2021/09/22 11:51:06;;;;;;;7.10;3.60;;;;;;;11.31;73.61;99030.55;114166;1198;22434;-81
2021/09/22 11:53:36;;;;;;;4.70;3.40;;;;;;;11.31;73.04;99028.39;114093;1183;22515;-81
2021/09/22 11:56:04;;;;;;;11.00;3.90;;;;;;;11.30;73.82;99029.77;114093;1198;25014;-81
2021/09/22 11:58:33;;;;;;;4.30;3.20;;;;;;;11.32;73.67;99028.20;114021;1198;22448;-81